Time;durP1;ratioP1;P1;durP2;ratioP2;P2;SDS_P1;SDS_P2;PMS_P1;PMS_P2;Temp;Humidity;BMP_temperature;BMP_pressure;BME280_temperature;BME280_humidity;BME280_pressure;Samples;Min_cycle;Max_cycle;Signal;HPM_P1;HPM_P2
2023/04/24 00:00:14;;;;;;;2.65;0.95;;;10.60;92.90;;;;;;5017622;28;20028;-73
2023/04/24 00:02:46;;;;;;;2.70;1.02;;;10.70;92.90;;;;;;5018033;28;20026;-72
2023/04/24 00:05:13;;;;;;;1.55;1.00;;;10.70;93.00;;;;;;5017867;28;20014;-73
2023/04/24 00:07:39;;;;;;;2.65;0.88;;;10.60;93.50;;;;;;5016558;28;20064;-72
2023/04/24 00:10:06;;;;;;;3.38;0.90;;;10.60;93.20;;;;;;5018699;28;20075;-72
2023/04/24 00:12:31;;;;;;;2.60;0.90;;;10.60;93.50;;;;;;5017471;28;20034;-72
2023/04/24 00:14:57;;;;;;;2.53;1.00;;;10.60;93.50;;;;;;5005022;28;20030;-72
2023/04/24 00:17:22;;;;;;;3.13;0.95;;;10.70;93.40;;;;;;4996424;28;20503;-72
2023/04/24 00:19:51;;;;;;;2.00;0.80;;;10.60;93.80;;;;;;5018723;28;20032;-72
2023/04/24 00:22:17;;;;;;;3.40;1.00;;;10.60;94.10;;;;;;5016314;28;20422;-72
2023/04/24 00:24:43;;;;;;;4.15;1.20;;;10.60;93.60;;;;;;4997816;28;20023;-72
2023/04/24 00:27:11;;;;;;;3.28;0.80;;;10.60;93.80;;;;;;5010619;28;20057;-71
2023/04/24 00:29:37;;;;;;;3.85;0.90;;;10.60;93.70;;;;;;5017142;28;20299;-71
2023/04/24 00:32:02;;;;;;;2.97;0.90;;;10.60;94.10;;;;;;5013304;28;20022;-71
2023/04/24 00:34:32;;;;;;;1.95;0.93;;;10.60;94.50;;;;;;4997378;28;20058;-71
2023/04/24 00:36:58;;;;;;;2.50;1.00;;;10.50;94.80;;;;;;4997326;28;20045;-72
2023/04/24 00:39:23;;;;;;;2.45;0.80;;;10.40;95.60;;;;;;4997276;28;20038;-72
2023/04/24 00:41:50;;;;;;;3.55;1.00;;;10.30;95.80;;;;;;4997187;28;20105;-72
2023/04/24 00:44:16;;;;;;;2.17;1.00;;;10.20;96.70;;;;;;5013987;28;20434;-72
2023/04/24 00:46:42;;;;;;;2.13;0.85;;;10.10;96.80;;;;;;5014301;28;20026;-74
2023/04/24 00:49:08;;;;;;;3.22;1.10;;;10.00;97.30;;;;;;5003189;28;20058;-72
2023/04/24 00:51:34;;;;;;;3.55;0.98;;;9.90;97.10;;;;;;5016667;28;20073;-72
2023/04/24 00:54:00;;;;;;;2.67;1.05;;;9.90;97.10;;;;;;5016679;28;20108;-72
2023/04/24 00:56:25;;;;;;;3.13;1.05;;;9.80;97.40;;;;;;5014165;28;20037;-72
2023/04/24 00:58:51;;;;;;;2.53;1.02;;;9.80;97.40;;;;;;5012842;28;20057;-73
2023/04/24 01:01:20;;;;;;;2.90;1.10;;;9.90;97.30;;;;;;5015086;28;20042;-72
2023/04/24 01:03:46;;;;;;;2.03;0.90;;;10.00;97.30;;;;;;5015736;28;20080;-72
2023/04/24 01:06:12;;;;;;;3.47;1.00;;;10.00;97.00;;;;;;5016585;28;20033;-72
2023/04/24 01:08:39;;;;;;;2.88;0.98;;;10.00;97.60;;;;;;5019231;28;20021;-72
2023/04/24 01:11:05;;;;;;;2.50;1.10;;;10.00;98.00;;;;;;5016361;28;20322;-72
2023/04/24 01:13:32;;;;;;;2.53;0.98;;;9.90;97.30;;;;;;5016395;28;20026;-73
2023/04/24 01:15:58;;;;;;;2.90;1.00;;;9.80;97.90;;;;;;5015138;28;20036;-72
2023/04/24 01:18:24;;;;;;;4.25;1.20;;;9.70;97.00;;;;;;5017348;28;20109;-72
2023/04/24 01:20:52;;;;;;;2.85;1.10;;;9.60;97.40;;;;;;5016251;28;20033;-72
2023/04/24 01:23:18;;;;;;;2.35;1.00;;;9.50;96.90;;;;;;5015331;28;20068;-72
2023/04/24 01:25:44;;;;;;;3.50;1.10;;;9.40;96.80;;;;;;5015250;28;20358;-73
2023/04/24 01:28:10;;;;;;;4.65;1.40;;;9.40;96.10;;;;;;5016250;28;20033;-73
2023/04/24 01:30:36;;;;;;;1.75;1.00;;;9.40;97.50;;;;;;5015014;28;20355;-73
2023/04/24 01:33:02;;;;;;;3.60;1.13;;;9.40;96.70;;;;;;4998888;28;20030;-73
2023/04/24 01:35:28;;;;;;;3.92;1.20;;;9.30;96.70;;;;;;4996917;28;20023;-72
2023/04/24 01:37:54;;;;;;;1.90;0.95;;;9.30;96.40;;;;;;4996395;28;20101;-73
2023/04/24 01:40:19;;;;;;;2.97;1.10;;;9.20;96.20;;;;;;4996868;28;20034;-72
2023/04/24 01:42:45;;;;;;;5.45;1.40;;;9.20;95.80;;;;;;4996425;28;20026;-73
2023/04/24 01:45:14;;;;;;;3.40;1.10;;;9.10;94.60;;;;;;5001952;28;20054;-73
2023/04/24 01:47:40;;;;;;;2.55;1.13;;;9.10;96.20;;;;;;5013859;28;20029;-73
2023/04/24 01:50:06;;;;;;;3.05;1.17;;;9.10;96.60;;;;;;5007207;28;20477;-73
2023/04/24 01:52:33;;;;;;;2.38;1.10;;;9.00;95.70;;;;;;5000698;28;20041;-73
2023/04/24 01:55:03;;;;;;;3.35;1.13;;;9.00;96.30;;;;;;5009502;28;20042;-73
2023/04/24 01:57:30;;;;;;;3.78;1.13;;;9.10;96.60;;;;;;5011874;28;20050;-72
2023/04/24 01:59:56;;;;;;;3.25;1.20;;;9.10;97.30;;;;;;5028880;28;20068;-73
2023/04/24 02:02:23;;;;;;;2.20;0.90;;;9.10;97.00;;;;;;5028311;28;20068;-72
2023/04/24 02:04:50;;;;;;;2.97;1.00;;;9.30;97.50;;;;;;5014422;28;20101;-72
2023/04/24 02:07:15;;;;;;;2.08;0.85;;;9.30;97.20;;;;;;5015121;28;20022;-72
2023/04/24 02:09:41;;;;;;;3.00;1.00;;;9.40;97.90;;;;;;5010388;28;20616;-72
2023/04/24 02:12:07;;;;;;;2.38;1.08;;;9.40;97.60;;;;;;5011331;28;20411;-73
2023/04/24 02:14:32;;;;;;;2.70;1.10;;;9.30;97.10;;;;;;5001146;28;20323;-73
2023/04/24 02:16:58;;;;;;;3.72;1.17;;;9.40;96.90;;;;;;4996435;28;20037;-72
2023/04/24 02:19:24;;;;;;;3.05;1.10;;;9.30;96.60;;;;;;5013534;28;20029;-74
2023/04/24 02:21:49;;;;;;;3.85;1.30;;;9.20;96.20;;;;;;5018492;28;20030;-73
2023/04/24 02:24:15;;;;;;;3.50;1.38;;;9.20;95.90;;;;;;5018376;28;20022;-73
2023/04/24 02:26:41;;;;;;;2.72;1.20;;;9.10;94.80;;;;;;5024537;28;20105;-73
2023/04/24 02:29:06;;;;;;;3.33;1.20;;;8.90;92.30;;;;;;5022140;28;20034;-73
2023/04/24 02:31:32;;;;;;;3.58;1.30;;;8.80;93.00;;;;;;5002503;28;20030;-73
2023/04/24 02:33:57;;;;;;;6.10;1.58;;;8.80;91.80;;;;;;5012466;28;20038;-73
2023/04/24 02:36:23;;;;;;;4.43;1.23;;;8.70;92.20;;;;;;4996223;28;20041;-73
2023/04/24 02:38:49;;;;;;;6.13;1.33;;;8.60;89.80;;;;;;4994386;28;20363;-73
2023/04/24 02:41:14;;;;;;;3.05;1.25;;;8.60;88.60;;;;;;4992889;28;20041;-73
2023/04/24 02:43:40;;;;;;;3.85;1.30;;;8.60;89.90;;;;;;5009279;28;20034;-73
2023/04/24 02:46:05;;;;;;;2.55;1.20;;;8.50;88.30;;;;;;5015892;28;20033;-73
2023/04/24 02:48:31;;;;;;;5.30;1.30;;;8.50;87.20;;;;;;5007485;28;20045;-73
2023/04/24 02:50:57;;;;;;;2.78;1.17;;;8.40;85.90;;;;;;4995415;28;20508;-73
2023/04/24 02:53:32;;;;;;;5.18;1.30;;;8.40;87.30;;;;;;4995263;28;20100;-73
2023/04/24 02:56:04;;;;;;;3.35;1.20;;;8.40;87.30;;;;;;5008026;28;20041;-72
2023/04/24 02:58:30;;;;;;;4.15;1.20;;;8.40;86.60;;;;;;5013344;28;20069;-72
2023/04/24 03:00:58;;;;;;;3.67;1.30;;;8.30;86.40;;;;;;5004777;28;20038;-73
2023/04/24 03:03:24;;;;;;;3.92;1.50;;;8.40;86.70;;;;;;4999054;28;20092;-73
2023/04/24 03:05:50;;;;;;;5.07;1.25;;;8.40;86.90;;;;;;5005102;28;20041;-72
2023/04/24 03:08:16;;;;;;;3.50;1.13;;;8.40;86.70;;;;;;5013136;28;20327;-73
2023/04/24 03:10:41;;;;;;;3.10;1.08;;;8.30;87.40;;;;;;5014565;28;20037;-73
2023/04/24 03:13:07;;;;;;;3.38;1.10;;;8.40;89.00;;;;;;5017695;28;20026;-73
2023/04/24 03:15:32;;;;;;;4.70;1.38;;;8.50;91.30;;;;;;5005199;28;20765;-72
2023/04/24 03:17:58;;;;;;;3.25;1.00;;;8.50;91.20;;;;;;5012374;28;20427;-72
2023/04/24 03:20:23;;;;;;;2.88;1.20;;;8.50;93.20;;;;;;5006411;28;20395;-72
2023/04/24 03:22:52;;;;;;;5.82;1.27;;;8.60;93.20;;;;;;5008722;28;20026;-72
2023/04/24 03:25:18;;;;;;;2.40;1.02;;;8.60;93.90;;;;;;5007658;28;20033;-71
2023/04/24 03:27:43;;;;;;;1.85;0.90;;;8.60;93.30;;;;;;4998927;28;20322;-72
2023/04/24 03:30:09;;;;;;;2.30;1.10;;;8.60;93.90;;;;;;5012347;28;20089;-71
2023/04/24 03:32:35;;;;;;;3.08;1.20;;;8.60;93.90;;;;;;5008504;28;20029;-72
2023/04/24 03:35:00;;;;;;;3.15;1.35;;;8.60;91.00;;;;;;5008570;28;20033;-72
2023/04/24 03:37:26;;;;;;;5.55;1.63;;;8.60;87.70;;;;;;5001991;28;20426;-72
2023/04/24 03:39:52;;;;;;;5.38;1.42;;;8.50;85.50;;;;;;5010432;28;20105;-73
2023/04/24 03:42:20;;;;;;;4.65;1.40;;;8.50;84.80;;;;;;5005036;28;20026;-72
2023/04/24 03:44:46;;;;;;;2.78;1.30;;;8.40;83.70;;;;;;5020699;28;20395;-72
2023/04/24 03:47:11;;;;;;;3.45;1.20;;;8.40;83.00;;;;;;5007875;28;20034;-72
2023/04/24 03:49:37;;;;;;;5.82;1.63;;;8.30;82.00;;;;;;5039216;28;20033;-72
2023/04/24 03:52:02;;;;;;;3.50;1.48;;;8.40;81.40;;;;;;5010795;28;20472;-72
2023/04/24 03:54:28;;;;;;;3.38;1.50;;;8.30;81.30;;;;;;5007076;28;20611;-72
2023/04/24 03:56:53;;;;;;;2.50;1.20;;;8.20;79.60;;;;;;5009764;28;20066;-72
2023/04/24 03:59:19;;;;;;;2.10;1.02;;;8.10;80.10;;;;;;5010072;28;20037;-71
2023/04/24 04:01:46;;;;;;;5.38;1.30;;;8.20;80.60;;;;;;5016322;28;20475;-71
2023/04/24 04:04:11;;;;;;;3.30;1.20;;;8.20;83.60;;;;;;5019179;28;20438;-72
2023/04/24 04:06:37;;;;;;;3.22;1.25;;;8.10;85.40;;;;;;5015510;28;20115;-71
2023/04/24 04:09:03;;;;;;;3.05;1.10;;;8.10;86.20;;;;;;5012515;28;20026;-71
2023/04/24 04:11:28;;;;;;;4.50;1.30;;;8.10;90.70;;;;;;5023097;28;20040;-71
2023/04/24 04:13:54;;;;;;;4.05;1.52;;;8.30;93.00;;;;;;5016923;28;20048;-71
2023/04/24 04:16:20;;;;;;;2.90;1.10;;;8.30;92.70;;;;;;5018411;28;20022;-71
2023/04/24 04:18:45;;;;;;;4.35;1.20;;;8.20;91.60;;;;;;5017540;28;20085;-72
2023/04/24 04:21:11;;;;;;;2.95;1.23;;;8.20;91.60;;;;;;5019897;28;20021;-72
2023/04/24 04:23:37;;;;;;;2.63;1.00;;;8.20;92.00;;;;;;5024164;28;20075;-72
2023/04/24 04:26:03;;;;;;;2.70;1.00;;;8.10;93.50;;;;;;5010759;28;20455;-72
2023/04/24 04:28:31;;;;;;;2.13;0.80;;;8.20;95.30;;;;;;5018151;28;20061;-71
2023/04/24 04:30:57;;;;;;;2.40;0.90;;;8.40;96.30;;;;;;5018726;28;20030;-72
2023/04/24 04:33:23;;;;;;;3.47;1.00;;;8.40;97.10;;;;;;5017297;28;20068;-72
2023/04/24 04:35:49;;;;;;;2.97;1.00;;;8.50;96.10;;;;;;5017821;28;20041;-72
2023/04/24 04:38:16;;;;;;;1.52;0.90;;;8.60;96.70;;;;;;5015226;28;20071;-72
2023/04/24 04:40:42;;;;;;;3.03;1.00;;;8.70;98.00;;;;;;5036600;28;20025;-73
2023/04/24 04:43:07;;;;;;;2.25;1.10;;;8.90;98.00;;;;;;5016877;28;20169;-72
2023/04/24 04:45:34;;;;;;;3.80;1.00;;;9.00;97.90;;;;;;5012360;28;20044;-73
2023/04/24 04:48:01;;;;;;;2.88;1.20;;;9.10;98.00;;;;;;5017164;28;20025;-73
2023/04/24 04:50:27;;;;;;;3.55;1.08;;;9.10;97.50;;;;;;5016744;28;20045;-76
2023/04/24 04:52:52;;;;;;;5.47;1.70;;;9.00;95.30;;;;;;5024180;28;20057;-76
2023/04/24 04:55:19;;;;;;;6.93;1.85;;;8.40;90.10;;;;;;5010512;28;20300;-77
2023/04/24 04:57:46;;;;;;;4.63;2.20;;;7.80;90.00;;;;;;5015725;28;20118;-76
2023/04/24 05:00:12;;;;;;;5.13;2.20;;;7.40;87.10;;;;;;5011474;28;20033;-77
2023/04/24 05:02:41;;;;;;;8.45;2.90;;;7.30;83.40;;;;;;5040586;28;20421;-76
2023/04/24 05:05:07;;;;;;;5.35;3.00;;;7.20;81.00;;;;;;5026420;28;20022;-77
2023/04/24 05:07:33;;;;;;;6.55;3.70;;;7.10;80.00;;;;;;5011111;28;20022;-76
2023/04/24 05:09:58;;;;;;;6.35;3.67;;;7.10;79.20;;;;;;5015693;28;20148;-77
2023/04/24 05:12:24;;;;;;;8.10;3.60;;;7.00;78.10;;;;;;5013848;28;20072;-76
2023/04/24 05:14:50;;;;;;;8.55;3.55;;;7.00;76.40;;;;;;4997104;28;20027;-76
2023/04/24 05:17:16;;;;;;;7.38;3.30;;;7.00;75.50;;;;;;5017770;28;20402;-76
2023/04/24 05:19:41;;;;;;;8.60;3.15;;;7.00;77.00;;;;;;5015422;28;20030;-76
2023/04/24 05:22:07;;;;;;;6.13;3.20;;;7.00;75.60;;;;;;5016003;28;20292;-76
2023/04/24 05:24:33;;;;;;;5.18;2.88;;;7.00;74.80;;;;;;5015195;28;20388;-76
2023/04/24 05:26:59;;;;;;;4.78;2.90;;;7.00;76.50;;;;;;5016169;28;20021;-76
2023/04/24 05:29:26;;;;;;;4.88;2.92;;;7.00;79.90;;;;;;5016340;28;20026;-76
2023/04/24 05:31:52;;;;;;;4.63;2.78;;;6.90;85.10;;;;;;5010142;28;20104;-78
2023/04/24 05:34:18;;;;;;;4.53;2.85;;;6.80;86.30;;;;;;5022109;28;20049;-76
2023/04/24 05:36:43;;;;;;;6.32;3.20;;;6.80;85.80;;;;;;5012265;28;20038;-77
2023/04/24 05:39:09;;;;;;;7.32;3.70;;;6.70;84.60;;;;;;5010845;28;20109;-79
2023/04/24 05:41:34;;;;;;;9.02;3.97;;;6.70;83.40;;;;;;5015530;28;20036;-78
2023/04/24 05:44:00;;;;;;;6.30;3.20;;;6.70;84.10;;;;;;5015068;28;20033;-77
2023/04/24 05:46:26;;;;;;;5.43;3.20;;;6.70;86.50;;;;;;5002574;28;20018;-78
2023/04/24 05:48:51;;;;;;;5.80;3.25;;;6.70;87.60;;;;;;4999691;28;20089;-77
2023/04/24 05:51:17;;;;;;;4.65;2.90;;;6.70;88.20;;;;;;4996168;28;20081;-77
2023/04/24 05:53:43;;;;;;;6.75;3.20;;;6.80;90.70;;;;;;5001034;28;20108;-76
2023/04/24 05:56:08;;;;;;;6.53;3.17;;;6.70;91.00;;;;;;5013029;28;20076;-77
2023/04/24 05:58:34;;;;;;;5.50;3.42;;;6.80;90.50;;;;;;5020800;28;20077;-77
2023/04/24 06:01:01;;;;;;;4.40;2.63;;;6.90;88.90;;;;;;5017859;28;20118;-76
2023/04/24 06:03:27;;;;;;;5.00;2.90;;;7.00;93.60;;;;;;5022342;28;20110;-76
2023/04/24 06:05:53;;;;;;;6.50;2.70;;;7.10;91.20;;;;;;5019653;28;20076;-76
2023/04/24 06:08:19;;;;;;;9.07;3.75;;;7.20;93.10;;;;;;5019515;28;20327;-76
2023/04/24 06:10:45;;;;;;;6.30;3.58;;;7.40;93.20;;;;;;5027064;28;20026;-76
2023/04/24 06:13:11;;;;;;;7.57;3.20;;;7.60;92.80;;;;;;5020554;28;20030;-76
2023/04/24 06:15:40;;;;;;;5.90;3.55;;;7.80;95.80;;;;;;5024082;28;20033;-74
2023/04/24 06:18:10;;;;;;;7.22;3.47;;;7.80;93.40;;;;;;5035751;28;20033;-74
2023/04/24 06:20:36;;;;;;;5.53;3.33;;;7.90;94.40;;;;;;5018527;28;20072;-74
2023/04/24 06:23:01;;;;;;;7.25;2.83;;;8.10;95.00;;;;;;5020656;28;20100;-74
2023/04/24 06:25:27;;;;;;;7.85;3.42;;;8.20;97.10;;;;;;5038125;28;20036;-75
2023/04/24 06:27:54;;;;;;;4.90;2.63;;;8.30;97.20;;;;;;5015969;28;20034;-75
2023/04/24 06:30:19;;;;;;;5.25;3.03;;;8.40;97.90;;;;;;4998822;28;20027;-74
2023/04/24 06:32:45;;;;;;;5.55;3.00;;;8.20;95.80;;;;;;5019207;28;20092;-75
2023/04/24 06:35:12;;;;;;;4.10;2.50;;;8.00;96.00;;;;;;5016414;28;20099;-74
2023/04/24 06:37:40;;;;;;;7.82;3.38;;;8.00;98.00;;;;;;5019337;28;20058;-73
2023/04/24 06:40:06;;;;;;;7.38;3.20;;;8.00;95.50;;;;;;5022302;28;20037;-74
2023/04/24 06:42:32;;;;;;;6.82;3.15;;;8.10;95.90;;;;;;5018735;28;20085;-73
2023/04/24 06:44:57;;;;;;;4.88;2.75;;;8.20;96.10;;;;;;5016827;28;20042;-73
2023/04/24 06:47:23;;;;;;;7.25;2.55;;;8.30;97.00;;;;;;5011829;28;20030;-73
2023/04/24 06:49:50;;;;;;;5.88;2.55;;;8.60;98.00;;;;;;5016137;28;20049;-73
2023/04/24 06:52:16;;;;;;;6.47;2.67;;;8.90;98.00;;;;;;5006807;28;20073;-73
2023/04/24 06:54:44;;;;;;;6.07;3.30;;;9.20;98.00;;;;;;5016459;28;20029;-73
2023/04/24 06:57:10;;;;;;;5.40;3.00;;;9.20;98.00;;;;;;5018566;28;20096;-73
2023/04/24 06:59:36;;;;;;;6.22;2.83;;;8.80;98.00;;;;;;5038656;28;20021;-73
2023/04/24 07:02:02;;;;;;;6.05;2.90;;;8.80;98.00;;;;;;5028900;28;20026;-74
2023/04/24 07:04:28;;;;;;;5.72;2.92;;;8.80;98.00;;;;;;5019677;28;20523;-74
2023/04/24 07:06:55;;;;;;;7.18;3.90;;;9.00;97.90;;;;;;5018346;28;20029;-74
2023/04/24 07:09:21;;;;;;;8.23;3.30;;;9.30;98.00;;;;;;5020648;28;20022;-74
2023/04/24 07:11:48;;;;;;;8.05;3.45;;;9.20;98.00;;;;;;5018748;28;20033;-73
2023/04/24 07:14:13;;;;;;;8.20;3.30;;;9.20;98.00;;;;;;5018593;28;20045;-74
2023/04/24 07:16:39;;;;;;;5.80;3.50;;;9.20;98.00;;;;;;5017370;28;20033;-74
2023/04/24 07:19:05;;;;;;;5.55;3.03;;;9.20;98.00;;;;;;5019646;28;20058;-75
2023/04/24 07:21:31;;;;;;;5.93;3.45;;;9.10;98.00;;;;;;5010737;28;20109;-74
2023/04/24 07:23:57;;;;;;;7.72;3.40;;;8.90;98.00;;;;;;4998924;28;20089;-74
2023/04/24 07:26:23;;;;;;;5.47;3.67;;;8.90;97.50;;;;;;4998962;28;20028;-74
2023/04/24 07:28:48;;;;;;;7.13;3.97;;;8.80;97.80;;;;;;4998745;28;20410;-73
2023/04/24 07:31:14;;;;;;;6.05;3.17;;;8.70;96.90;;;;;;4997716;28;20034;-74
2023/04/24 07:33:40;;;;;;;6.15;3.65;;;8.60;97.40;;;;;;4998687;28;20034;-73
2023/04/24 07:36:06;;;;;;;5.03;3.15;;;8.50;97.10;;;;;;5009406;28;20292;-73
2023/04/24 07:38:31;;;;;;;5.72;3.05;;;8.50;97.40;;;;;;5018238;28;20378;-73
2023/04/24 07:41:00;;;;;;;6.22;3.30;;;8.60;98.00;;;;;;5005000;28;20065;-73
2023/04/24 07:43:25;;;;;;;5.82;2.53;;;8.70;98.00;;;;;;5018291;28;20029;-74
2023/04/24 07:45:51;;;;;;;8.77;2.50;;;8.60;97.70;;;;;;5016802;28;20422;-75
2023/04/24 07:48:17;;;;;;;5.03;2.58;;;8.20;98.00;;;;;;5017949;28;20430;-75
2023/04/24 07:50:44;;;;;;;5.65;2.80;;;7.80;97.40;;;;;;5015927;28;20418;-75
2023/04/24 07:53:09;;;;;;;5.18;2.65;;;7.80;97.10;;;;;;5017872;28;20054;-74
2023/04/24 07:55:35;;;;;;;4.95;2.45;;;8.10;96.50;;;;;;5004754;28;20069;-75
2023/04/24 07:58:01;;;;;;;4.57;2.47;;;8.60;98.00;;;;;;5014583;28;20057;-74
2023/04/24 08:00:26;;;;;;;6.95;2.30;;;8.90;98.00;;;;;;5016927;28;20026;-74
2023/04/24 08:02:52;;;;;;;5.60;2.40;;;9.20;98.00;;;;;;5017731;28;20030;-74
2023/04/24 08:05:17;;;;;;;6.00;2.50;;;9.20;98.00;;;;;;5017322;28;20025;-74
2023/04/24 08:07:45;;;;;;;6.03;2.47;;;9.30;98.00;;;;;;5016960;28;20037;-74
2023/04/24 08:10:11;;;;;;;5.55;2.10;;;9.60;97.90;;;;;;5007962;28;20509;-74
2023/04/24 08:12:37;;;;;;;5.82;2.28;;;9.70;96.50;;;;;;5014323;28;20121;-74
2023/04/24 08:15:04;;;;;;;5.13;2.20;;;9.80;96.90;;;;;;5013338;28;20037;-74
2023/04/24 08:17:30;;;;;;;5.35;2.40;;;9.70;96.40;;;;;;4995682;28;20026;-73
2023/04/24 08:20:01;;;;;;;5.45;2.85;;;9.50;96.00;;;;;;4997374;28;20089;-74
2023/04/24 08:22:27;;;;;;;4.15;2.10;;;9.50;97.00;;;;;;4997778;28;20027;-73
2023/04/24 08:24:53;;;;;;;4.38;2.58;;;9.50;97.30;;;;;;4997920;28;20069;-73
2023/04/24 08:27:18;;;;;;;5.03;2.38;;;9.30;97.40;;;;;;4997796;28;20033;-73
2023/04/24 08:29:44;;;;;;;4.80;2.40;;;9.10;97.40;;;;;;4997257;28;20026;-73
2023/04/24 08:32:10;;;;;;;4.75;2.55;;;9.00;97.60;;;;;;4996703;28;20030;-73
2023/04/24 08:34:35;;;;;;;4.93;2.25;;;9.10;97.70;;;;;;4997581;28;20030;-73
2023/04/24 08:37:02;;;;;;;7.35;2.63;;;9.50;97.10;;;;;;4997598;28;20034;-73
2023/04/24 08:39:27;;;;;;;4.93;2.60;;;9.30;96.40;;;;;;4997549;28;20443;-73
2023/04/24 08:41:53;;;;;;;5.38;3.17;;;9.10;96.60;;;;;;4997377;28;20030;-73
2023/04/24 08:44:20;;;;;;;9.48;3.50;;;9.00;97.50;;;;;;5005770;28;20018;-73
2023/04/24 08:46:48;;;;;;;8.57;4.10;;;9.10;97.10;;;;;;5004131;28;20053;-74
2023/04/24 08:49:16;;;;;;;7.13;2.85;;;9.10;96.50;;;;;;5013212;28;20042;-73
2023/04/24 08:51:42;;;;;;;6.50;3.38;;;9.00;95.20;;;;;;5016984;28;20029;-73
2023/04/24 08:54:08;;;;;;;5.70;2.75;;;9.30;95.90;;;;;;5000378;28;20034;-73
2023/04/24 08:56:37;;;;;;;4.75;2.67;;;9.50;92.80;;;;;;4997270;28;20117;-73
2023/04/24 08:59:04;;;;;;;9.82;6.57;;;9.70;93.70;;;;;;5011673;28;20050;-73
2023/04/24 09:01:33;;;;;;;7.22;4.20;;;9.60;93.30;;;;;;5014504;28;20034;-73
2023/04/24 09:04:03;;;;;;;8.68;4.05;;;9.60;93.00;;;;;;5017467;28;20487;-73
2023/04/24 09:06:31;;;;;;;7.72;2.67;;;9.80;92.40;;;;;;5016643;28;20085;-73
2023/04/24 09:09:00;;;;;;;7.03;2.78;;;9.90;90.50;;;;;;5011179;28;20026;-73
2023/04/24 09:11:27;;;;;;;10.55;2.45;;;10.00;90.70;;;;;;4999212;28;20026;-73
2023/04/24 09:13:54;;;;;;;5.40;3.05;;;10.30;90.50;;;;;;5015395;28;20038;-73
2023/04/24 09:16:20;;;;;;;3.95;2.22;;;10.60;90.70;;;;;;5015117;28;20496;-73
2023/04/24 09:18:46;;;;;;;4.53;2.15;;;11.10;88.50;;;;;;5015458;28;20082;-73
2023/04/24 09:21:11;;;;;;;4.63;2.15;;;11.30;89.00;;;;;;5007861;28;20038;-73
2023/04/24 09:23:38;;;;;;;7.10;2.08;;;12.60;87.00;;;;;;4999891;28;20311;-73
2023/04/24 09:26:06;;;;;;;5.22;2.15;;;12.50;85.10;;;;;;5012213;28;20029;-73
2023/04/24 09:28:39;;;;;;;7.55;2.58;;;11.10;87.90;;;;;;5016393;28;20101;-73
2023/04/24 09:31:24;;;;;;;5.07;2.88;;;10.10;91.90;;;;;;5012964;28;20057;-73
2023/04/24 09:34:01;;;;;;;5.25;3.08;;;9.20;94.40;;;;;;5007647;28;20331;-72
2023/04/24 09:36:31;;;;;;;7.07;2.80;;;8.60;97.30;;;;;;5014290;28;20030;-74
2023/04/24 09:39:02;;;;;;;7.85;2.85;;;8.20;98.00;;;;;;5031680;28;20480;-73
2023/04/24 09:41:28;;;;;;;5.93;2.83;;;7.80;97.40;;;;;;5005451;28;20419;-73
2023/04/24 09:43:55;;;;;;;8.32;3.85;;;7.70;98.00;;;;;;5009413;28;20120;-73
2023/04/24 09:46:23;;;;;;;7.32;3.10;;;7.90;97.40;;;;;;5014814;28;20113;-73
2023/04/24 09:48:49;;;;;;;8.02;3.95;;;8.30;97.50;;;;;;5007856;28;20022;-72
2023/04/24 09:51:15;;;;;;;8.85;2.65;;;9.20;97.80;;;;;;5007273;28;20497;-73
2023/04/24 09:53:47;;;;;;;6.43;2.60;;;10.70;95.00;;;;;;5014966;28;20034;-73
2023/04/24 09:56:12;;;;;;;5.68;2.30;;;11.60;89.60;;;;;;5015103;28;20084;-73
2023/04/24 09:58:39;;;;;;;6.57;2.33;;;11.50;89.40;;;;;;5015956;28;20442;-73
2023/04/24 10:01:05;;;;;;;5.22;2.50;;;11.70;87.30;;;;;;5014676;28;20030;-72
2023/04/24 10:03:32;;;;;;;6.45;2.15;;;12.20;86.40;;;;;;5016091;28;20045;-72
2023/04/24 10:06:02;;;;;;;5.95;2.78;;;12.90;84.30;;;;;;5016068;28;20099;-72
2023/04/24 10:08:34;;;;;;;5.35;2.35;;;12.70;82.70;;;;;;5007558;28;20081;-73
2023/04/24 10:11:01;;;;;;;6.25;2.67;;;11.50;84.30;;;;;;5028643;28;20033;-73
2023/04/24 10:13:27;;;;;;;5.15;2.55;;;10.60;87.00;;;;;;4996156;28;20109;-73
2023/04/24 10:15:53;;;;;;;4.75;2.55;;;10.10;88.80;;;;;;4995205;28;20030;-73
2023/04/24 10:18:21;;;;;;;6.38;2.70;;;10.10;88.40;;;;;;4995134;28;20037;-73
2023/04/24 10:20:47;;;;;;;4.45;2.40;;;10.90;88.10;;;;;;4996485;28;20041;-73
2023/04/24 10:23:12;;;;;;;4.78;2.10;;;11.70;85.20;;;;;;4997052;28;20027;-73
2023/04/24 10:25:38;;;;;;;4.93;2.35;;;11.60;81.50;;;;;;4996128;28;20025;-74
2023/04/24 10:28:04;;;;;;;4.70;1.98;;;11.30;82.30;;;;;;4996273;28;20022;-75
2023/04/24 10:30:34;;;;;;;5.20;2.17;;;11.20;81.00;;;;;;4994965;28;20015;-74
2023/04/24 10:33:04;;;;;;;3.88;2.03;;;10.70;83.30;;;;;;4996005;28;20029;-73
2023/04/24 10:35:42;;;;;;;4.20;1.80;;;10.40;82.30;;;;;;4995824;28;20030;-74
2023/04/24 10:38:18;;;;;;;4.63;1.67;;;10.90;82.60;;;;;;5027883;28;20034;-74
2023/04/24 10:40:44;;;;;;;4.82;1.90;;;11.80;80.20;;;;;;4995976;28;20366;-74
2023/04/24 10:43:10;;;;;;;5.18;1.50;;;12.70;79.10;;;;;;4997324;28;20076;-73
2023/04/24 10:45:39;;;;;;;5.75;1.70;;;13.30;77.50;;;;;;4998695;28;20022;-73
2023/04/24 10:48:16;;;;;;;3.65;1.50;;;13.50;76.30;;;;;;4999523;28;20026;-74
2023/04/24 10:50:46;;;;;;;9.95;2.30;;;13.40;75.40;;;;;;5002841;28;20056;-75
2023/04/24 10:53:19;;;;;;;4.97;1.70;;;12.90;75.50;;;;;;5019072;28;20047;-75
2023/04/24 10:55:45;;;;;;;5.05;1.67;;;13.10;76.60;;;;;;5018255;28;20018;-75
2023/04/24 10:58:11;;;;;;;6.85;3.70;;;12.70;78.30;;;;;;5018909;28;20104;-75
2023/04/24 11:00:38;;;;;;;7.40;1.98;;;12.10;79.20;;;;;;5016678;28;20137;-76
2023/04/24 11:03:26;;;;;;;9.90;1.80;;;11.50;78.50;;;;;;5018910;28;20049;-75
2023/04/24 11:05:59;;;;;;;3.92;1.80;;;11.30;79.40;;;;;;5019018;28;20029;-74
2023/04/24 11:08:28;;;;;;;3.03;1.67;;;11.30;78.90;;;;;;5018791;28;20057;-75
2023/04/24 11:11:03;;;;;;;5.10;1.70;;;11.00;79.40;;;;;;5018231;28;20029;-75
2023/04/24 11:13:53;;;;;;;4.53;1.65;;;10.30;80.70;;;;;;5018943;28;20018;-75
2023/04/24 11:16:38;;;;;;;4.35;1.80;;;10.10;82.40;;;;;;5015856;28;20442;-75
2023/04/24 11:19:09;;;;;;;6.70;2.22;;;10.10;82.90;;;;;;5030930;28;20037;-75
2023/04/24 11:21:37;;;;;;;5.00;1.90;;;10.30;83.80;;;;;;4998926;28;20057;-74
2023/04/24 11:24:41;;;;;;;4.78;2.00;;;10.60;82.60;;;;;;4999052;28;20113;-74
2023/04/24 11:27:21;;;;;;;8.30;2.15;;;11.10;81.10;;;;;;4998868;28;20093;-75
2023/04/24 11:29:56;;;;;;;6.63;2.30;;;11.00;80.90;;;;;;5030676;28;20419;-75
2023/04/24 11:32:26;;;;;;;3.45;1.60;;;11.20;81.40;;;;;;4998227;28;20084;-74
2023/04/24 11:34:53;;;;;;;4.45;1.35;;;11.20;81.20;;;;;;5011415;28;20053;-74
2023/04/24 11:37:19;;;;;;;5.15;1.80;;;10.90;80.60;;;;;;5017470;28;20065;-74
2023/04/24 11:39:45;;;;;;;4.43;1.67;;;10.60;81.60;;;;;;5017842;28;20430;-74
2023/04/24 11:42:14;;;;;;;4.00;1.33;;;11.20;81.40;;;;;;5017098;28;20018;-75
2023/04/24 11:44:41;;;;;;;6.18;1.98;;;11.60;79.90;;;;;;5018205;28;20049;-74
2023/04/24 11:47:09;;;;;;;4.40;1.65;;;11.20;80.40;;;;;;5016002;28;20319;-74
2023/04/24 11:49:37;;;;;;;5.03;1.77;;;10.90;80.50;;;;;;5018029;28;20411;-74
2023/04/24 11:52:03;;;;;;;3.63;1.80;;;11.00;81.90;;;;;;5017950;28;20029;-74
2023/04/24 11:54:31;;;;;;;6.78;2.70;;;10.80;81.30;;;;;;5016230;28;20044;-74
2023/04/24 11:56:57;;;;;;;3.85;1.70;;;10.70;82.30;;;;;;5017749;28;20037;-74
2023/04/24 11:59:23;;;;;;;3.25;1.63;;;10.70;82.50;;;;;;5018036;28;20038;-74
2023/04/24 12:01:49;;;;;;;4.88;1.48;;;10.60;82.40;;;;;;5016655;28;20080;-74
2023/04/24 12:04:16;;;;;;;4.00;1.60;;;10.30;83.00;;;;;;5017735;28;20314;-74
2023/04/24 12:07:04;;;;;;;5.15;1.58;;;10.10;83.60;;;;;;5016686;28;20030;-74
2023/04/24 12:09:41;;;;;;;3.20;1.65;;;10.30;84.10;;;;;;5016903;28;20021;-74
2023/04/24 12:12:07;;;;;;;3.40;1.27;;;10.30;81.90;;;;;;5017623;28;20021;-73
2023/04/24 12:14:32;;;;;;;5.03;1.73;;;10.20;81.60;;;;;;5017709;28;20034;-73
2023/04/24 12:16:58;;;;;;;4.82;1.60;;;10.20;82.30;;;;;;5016427;28;20415;-74
2023/04/24 12:19:24;;;;;;;7.07;2.25;;;10.30;81.90;;;;;;5017332;28;20319;-74
2023/04/24 12:22:00;;;;;;;5.65;2.13;;;10.30;82.70;;;;;;5017454;28;20034;-74
2023/04/24 12:24:26;;;;;;;5.38;2.28;;;10.10;82.20;;;;;;5001754;28;20093;-73
2023/04/24 12:26:53;;;;;;;6.50;2.80;;;9.60;84.10;;;;;;5015720;28;20068;-73
2023/04/24 12:29:25;;;;;;;4.60;2.08;;;9.40;85.50;;;;;;5017328;28;20030;-74
2023/04/24 12:31:51;;;;;;;6.20;2.03;;;9.30;85.70;;;;;;5015847;28;20419;-74
2023/04/24 12:34:25;;;;;;;8.68;2.60;;;9.20;86.90;;;;;;5017382;28;20029;-74
2023/04/24 12:36:51;;;;;;;6.53;2.40;;;9.20;87.10;;;;;;5017346;28;20065;-73
2023/04/24 12:39:18;;;;;;;7.15;2.67;;;9.40;86.20;;;;;;5028976;28;20049;-75
2023/04/24 12:42:00;;;;;;;5.20;2.67;;;9.70;85.00;;;;;;5026852;28;20034;-74
2023/04/24 12:44:31;;;;;;;7.00;4.20;;;9.70;84.90;;;;;;5006461;28;20021;-74
2023/04/24 12:46:57;;;;;;;7.18;2.80;;;9.70;85.20;;;;;;5015661;28;20029;-74
2023/04/24 12:49:23;;;;;;;4.90;2.03;;;10.00;85.80;;;;;;5005399;28;20025;-75
2023/04/24 12:51:48;;;;;;;3.83;2.20;;;10.10;83.10;;;;;;5016889;28;20137;-75